createdAt,value
2022-07-30T00:02:27.307Z,20.90
2022-07-30T00:05:13.608Z,20.92
2022-07-30T00:08:00.352Z,20.91
2022-07-30T00:10:43.993Z,20.87
2022-07-30T00:13:24.361Z,20.97
2022-07-30T00:16:03.181Z,20.89
2022-07-30T00:18:43.085Z,20.97
2022-07-30T00:21:36.231Z,20.95
2022-07-30T00:24:21.011Z,21.08
2022-07-30T00:26:59.004Z,21.07
2022-07-30T00:29:36.721Z,20.92
2022-07-30T00:32:33.950Z,20.82
2022-07-30T00:35:14.435Z,20.74
2022-07-30T00:37:46.675Z,20.67
2022-07-30T00:40:24.400Z,20.64
2022-07-30T00:43:28.897Z,20.60
2022-07-30T00:46:10.660Z,20.44
2022-07-30T00:48:46.384Z,20.47
2022-07-30T00:51:36.133Z,20.53
2022-07-30T00:54:25.412Z,20.54
2022-07-30T00:57:05.905Z,20.55
2022-07-30T00:59:39.952Z,20.48
2022-07-30T01:02:21.328Z,20.48
2022-07-30T01:04:57.218Z,20.45
2022-07-30T01:07:39.606Z,20.42
2022-07-30T01:10:24.843Z,20.43
2022-07-30T01:13:02.186Z,20.40
2022-07-30T01:15:38.509Z,20.36
2022-07-30T01:18:14.963Z,20.34
2022-07-30T01:21:06.390Z,20.17
2022-07-30T01:23:50.418Z,20.19
2022-07-30T01:26:40.064Z,20.07
2022-07-30T01:29:21.592Z,20.11
2022-07-30T01:32:16.435Z,20.26
2022-07-30T01:35:05.780Z,20.23
2022-07-30T01:38:01.610Z,20.34
2022-07-30T01:40:40.739Z,20.37
2022-07-30T01:43:30.958Z,20.10
2022-07-30T01:46:11.157Z,20.06
2022-07-30T01:48:44.140Z,20.10
2022-07-30T01:51:20.024Z,20.14
2022-07-30T01:53:59.433Z,20.29
2022-07-30T01:57:00.391Z,20.24
2022-07-30T01:59:45.075Z,20.27
2022-07-30T02:02:34.608Z,20.39
2022-07-30T02:05:15.780Z,20.45
2022-07-30T02:08:25.235Z,20.31
2022-07-30T02:11:34.975Z,20.45
2022-07-30T02:14:31.723Z,20.38
2022-07-30T02:17:30.235Z,20.36
2022-07-30T02:20:25.149Z,20.32
2022-07-30T02:23:13.735Z,20.29
2022-07-30T02:25:57.753Z,20.27
2022-07-30T02:28:45.641Z,20.26
2022-07-30T02:31:35.202Z,20.30
2022-07-30T02:34:17.788Z,20.33
2022-07-30T02:36:58.842Z,20.29
2022-07-30T02:39:41.231Z,20.34
2022-07-30T02:42:18.247Z,20.25
2022-07-30T02:45:05.185Z,20.15
2022-07-30T02:48:02.956Z,20.04
2022-07-30T02:50:30.985Z,19.96
2022-07-30T02:53:14.617Z,19.87
2022-07-30T02:55:48.979Z,19.91
2022-07-30T02:58:28.266Z,19.93
2022-07-30T03:01:06.093Z,19.79
2022-07-30T03:03:51.612Z,19.72
2022-07-30T03:06:26.632Z,19.59
2022-07-30T03:09:11.929Z,19.57
2022-07-30T03:12:05.078Z,19.41
2022-07-30T03:14:55.267Z,19.43
2022-07-30T03:17:35.132Z,19.50
2022-07-30T03:20:09.462Z,19.39
2022-07-30T03:22:52.727Z,19.33
2022-07-30T03:25:30.943Z,19.34
2022-07-30T03:28:04.876Z,19.37
2022-07-30T03:30:39.036Z,19.43
2022-07-30T03:33:13.141Z,19.43
2022-07-30T03:35:54.372Z,19.34
2022-07-30T03:38:28.333Z,19.36
2022-07-30T03:41:11.220Z,19.35
2022-07-30T03:43:57.961Z,19.29
2022-07-30T03:46:40.297Z,19.35
2022-07-30T03:49:28.274Z,19.28
2022-07-30T03:51:59.950Z,19.30
2022-07-30T03:54:28.329Z,19.34
2022-07-30T03:57:35.205Z,19.38
2022-07-30T04:00:08.201Z,19.32
2022-07-30T04:02:49.887Z,19.33
2022-07-30T04:05:55.770Z,19.37
2022-07-30T04:08:38.066Z,19.36
2022-07-30T04:11:16.062Z,19.41
2022-07-30T04:13:50.921Z,19.54
2022-07-30T04:16:42.149Z,19.58
2022-07-30T04:19:26.982Z,19.58
2022-07-30T04:22:05.017Z,19.69
2022-07-30T04:24:55.452Z,19.79
2022-07-30T04:27:40.202Z,19.80
2022-07-30T04:30:44.260Z,20.00
2022-07-30T04:33:20.080Z,20.04
2022-07-30T04:36:48.161Z,20.06
2022-07-30T04:39:26.786Z,20.22
2022-07-30T04:41:59.806Z,20.45
2022-07-30T04:44:56.356Z,20.50
2022-07-30T04:47:49.607Z,20.56
2022-07-30T04:50:39.253Z,20.78
2022-07-30T04:53:27.947Z,20.95
2022-07-30T04:56:07.131Z,21.10
2022-07-30T04:58:57.550Z,21.17
2022-07-30T05:01:46.810Z,21.37
2022-07-30T05:04:18.548Z,21.45
2022-07-30T05:07:08.912Z,21.41
2022-07-30T05:09:36.673Z,21.53
2022-07-30T05:12:21.513Z,21.68
2022-07-30T05:14:55.485Z,21.85
2022-07-30T05:17:34.269Z,22.04
2022-07-30T05:20:15.019Z,22.24
2022-07-30T05:23:08.151Z,22.17
2022-07-30T05:25:39.542Z,22.40
2022-07-30T05:28:32.364Z,22.62
2022-07-30T05:31:08.638Z,22.90
2022-07-30T05:33:43.015Z,23.03
2022-07-30T05:36:30.066Z,23.34
2022-07-30T05:39:10.539Z,23.30
2022-07-30T05:42:17.676Z,23.17
2022-07-30T05:45:00.459Z,22.86
2022-07-30T05:47:36.558Z,22.66
2022-07-30T05:50:12.848Z,22.59
2022-07-30T05:52:59.062Z,22.56
2022-07-30T05:56:21.122Z,22.31
2022-07-30T05:59:17.370Z,22.39
2022-07-30T06:02:27.286Z,22.36
2022-07-30T06:05:03.480Z,22.15
2022-07-30T06:07:48.779Z,22.04
2022-07-30T06:10:35.336Z,21.76
2022-07-30T06:13:07.983Z,21.46
2022-07-30T06:15:54.378Z,21.35
2022-07-30T06:18:44.233Z,21.35
2022-07-30T06:22:05.335Z,21.24
2022-07-30T06:24:36.167Z,21.23
2022-07-30T06:27:16.520Z,21.21
2022-07-30T06:29:57.557Z,21.14
2022-07-30T06:32:39.195Z,21.18
2022-07-30T06:35:13.621Z,21.03
2022-07-30T06:38:05.612Z,21.00
2022-07-30T06:41:04.439Z,20.79
2022-07-30T06:44:03.136Z,20.91
2022-07-30T06:47:11.670Z,20.89
2022-07-30T06:49:54.029Z,20.76
2022-07-30T06:52:32.335Z,20.85
2022-07-30T06:55:00.798Z,20.92
2022-07-30T06:57:49.603Z,21.12
2022-07-30T07:00:58.278Z,21.22
2022-07-30T07:03:39.867Z,21.30
2022-07-30T07:06:16.374Z,21.37
2022-07-30T07:08:48.332Z,21.44
2022-07-30T07:11:43.656Z,21.54
2022-07-30T07:14:26.170Z,21.49
2022-07-30T07:17:05.580Z,21.48
2022-07-30T07:20:02.724Z,21.87
2022-07-30T07:22:45.309Z,22.22
2022-07-30T07:25:23.976Z,22.36
2022-07-30T07:28:14.228Z,22.50
2022-07-30T07:30:58.156Z,23.15
2022-07-30T07:33:48.622Z,23.57
2022-07-30T07:36:29.913Z,23.29
2022-07-30T07:39:20.389Z,22.79
2022-07-30T07:41:59.374Z,22.76
2022-07-30T07:44:45.204Z,22.64
2022-07-30T07:47:22.184Z,22.55
2022-07-30T07:50:07.847Z,22.43
2022-07-30T07:52:48.858Z,22.07
2022-07-30T07:55:27.099Z,22.23
2022-07-30T07:57:58.212Z,22.40
2022-07-30T08:00:36.174Z,22.45
2022-07-30T08:03:08.434Z,22.41
2022-07-30T08:05:58.192Z,22.45
2022-07-30T08:09:03.211Z,22.10
2022-07-30T08:12:06.856Z,22.44
2022-07-30T08:15:04.174Z,22.39
2022-07-30T08:18:02.571Z,22.18
2022-07-30T08:20:50.575Z,22.29
2022-07-30T08:23:27.168Z,22.22
2022-07-30T08:26:08.115Z,22.06
2022-07-30T08:28:46.180Z,22.13
2022-07-30T08:31:13.531Z,21.97
2022-07-30T08:33:46.974Z,21.91
2022-07-30T08:36:25.967Z,21.87
2022-07-30T08:39:13.031Z,21.88
2022-07-30T08:41:54.562Z,21.71
2022-07-30T08:44:27.368Z,21.70
2022-07-30T08:47:18.384Z,21.71
2022-07-30T08:50:21.225Z,21.77
2022-07-30T08:53:16.087Z,21.66
2022-07-30T08:56:00.782Z,21.64
2022-07-30T08:58:40.445Z,21.48
2022-07-30T09:01:27.434Z,21.37
2022-07-30T09:04:08.449Z,21.20
2022-07-30T09:06:40.934Z,21.33
2022-07-30T09:09:26.180Z,21.32
2022-07-30T09:11:55.894Z,21.44
2022-07-30T09:14:30.886Z,21.73
2022-07-30T09:17:13.821Z,21.93
2022-07-30T09:20:11.438Z,22.75
2022-07-30T09:23:00.178Z,23.35
2022-07-30T09:25:44.167Z,23.85
2022-07-30T09:28:35.335Z,24.34
2022-07-30T09:32:04.450Z,24.21
2022-07-30T09:35:19.206Z,24.25
2022-07-30T09:38:16.673Z,23.78
2022-07-30T09:41:17.247Z,23.45
2022-07-30T09:44:33.887Z,23.01
2022-07-30T09:47:28.735Z,23.00
2022-07-30T09:50:29.558Z,22.71
2022-07-30T09:53:15.185Z,22.66
2022-07-30T09:55:49.273Z,22.71
2022-07-30T09:58:27.089Z,22.57
2022-07-30T10:01:13.623Z,22.37
2022-07-30T10:03:52.048Z,22.33
2022-07-30T10:06:41.813Z,22.23
2022-07-30T10:09:45.471Z,22.03
2022-07-30T10:12:32.894Z,22.01
2022-07-30T10:15:06.250Z,22.06
2022-07-30T10:17:41.815Z,21.97
2022-07-30T10:20:43.713Z,21.83
2022-07-30T10:23:45.464Z,21.82
2022-07-30T10:26:51.759Z,21.84
2022-07-30T10:30:08.667Z,21.74
2022-07-30T10:32:44.814Z,21.52
2022-07-30T10:35:42.262Z,21.19
2022-07-30T10:38:20.896Z,20.83
2022-07-30T10:41:08.197Z,20.54
2022-07-30T10:44:15.760Z,20.31
2022-07-30T10:47:18.657Z,20.04
2022-07-30T10:50:15.500Z,20.06
2022-07-30T10:53:03.136Z,20.16
2022-07-30T10:55:37.628Z,20.13
2022-07-30T10:58:22.846Z,20.16
2022-07-30T11:01:18.054Z,20.04
2022-07-30T11:04:20.479Z,19.93
2022-07-30T11:07:23.630Z,19.96
2022-07-30T11:10:05.321Z,19.88
2022-07-30T11:13:11.062Z,19.82
2022-07-30T11:15:59.822Z,19.92
2022-07-30T11:19:19.641Z,19.77
2022-07-30T11:22:26.072Z,19.73
2022-07-30T11:25:13.000Z,19.82
2022-07-30T11:27:51.799Z,19.90
2022-07-30T11:30:49.601Z,19.88
2022-07-30T11:33:32.898Z,19.91
2022-07-30T11:36:15.314Z,19.87
2022-07-30T11:39:06.828Z,19.87
2022-07-30T11:42:05.230Z,20.08
2022-07-30T11:44:42.714Z,20.06
2022-07-30T11:47:12.674Z,20.33
2022-07-30T11:49:50.934Z,20.65
2022-07-30T11:52:34.837Z,20.77
2022-07-30T11:55:09.931Z,21.19
2022-07-30T11:57:46.551Z,21.39
2022-07-30T12:00:22.006Z,21.95
2022-07-30T12:03:04.230Z,22.12
2022-07-30T12:05:45.823Z,22.40
2022-07-30T12:08:38.952Z,22.33
2022-07-30T12:11:16.342Z,22.90
2022-07-30T12:13:47.948Z,23.31
2022-07-30T12:16:25.407Z,23.50
2022-07-30T12:18:58.113Z,23.72
2022-07-30T12:21:25.140Z,23.54
2022-07-30T12:24:15.126Z,23.54
2022-07-30T12:26:55.905Z,23.60
2022-07-30T12:29:39.487Z,23.59
2022-07-30T12:32:10.161Z,23.92
2022-07-30T12:35:02.093Z,24.51
2022-07-30T12:37:40.206Z,24.33
2022-07-30T12:40:14.594Z,23.95
2022-07-30T12:43:02.598Z,24.00
2022-07-30T12:45:50.491Z,23.72
2022-07-30T12:48:35.870Z,23.81
2022-07-30T12:51:22.553Z,23.46
2022-07-30T12:53:58.179Z,23.65
2022-07-30T12:56:40.150Z,23.65
2022-07-30T12:59:26.292Z,23.68
2022-07-30T13:01:56.489Z,23.79
2022-07-30T13:04:39.812Z,24.10
2022-07-30T13:07:36.472Z,24.31
2022-07-30T13:10:21.706Z,24.41
2022-07-30T13:13:02.563Z,24.26
2022-07-30T13:15:41.023Z,24.18
2022-07-30T13:18:34.639Z,24.30
2022-07-30T13:21:11.442Z,24.51
2022-07-30T13:23:59.218Z,25.07
2022-07-30T13:26:42.247Z,25.18
2022-07-30T13:29:27.651Z,25.03
2022-07-30T13:32:06.183Z,24.61
2022-07-30T13:34:42.091Z,25.23
2022-07-30T13:37:22.011Z,25.17
2022-07-30T13:40:12.400Z,24.89
2022-07-30T13:42:55.476Z,24.74
2022-07-30T13:45:33.415Z,24.38
2022-07-30T13:48:06.103Z,24.87
2022-07-30T13:50:53.006Z,24.95
2022-07-30T13:53:41.185Z,24.94
2022-07-30T13:56:12.674Z,24.48
2022-07-30T13:58:48.262Z,24.40
2022-07-30T14:01:17.709Z,24.29
2022-07-30T14:03:57.220Z,24.61
2022-07-30T14:06:44.191Z,23.75
2022-07-30T14:09:24.389Z,23.80
2022-07-30T14:12:14.112Z,23.81
2022-07-30T14:14:54.552Z,23.80
2022-07-30T14:17:38.231Z,23.70
2022-07-30T14:20:19.032Z,23.47
2022-07-30T14:23:01.913Z,23.33
2022-07-30T14:25:50.543Z,23.08
2022-07-30T14:28:17.527Z,23.10
2022-07-30T14:30:59.182Z,22.95
2022-07-30T14:33:34.382Z,23.01
2022-07-30T14:36:10.030Z,22.92
2022-07-30T14:38:50.798Z,22.68
2022-07-30T14:41:39.990Z,22.86
2022-07-30T14:44:30.121Z,22.93
2022-07-30T14:47:13.680Z,23.02
2022-07-30T14:49:57.515Z,23.00
2022-07-30T14:52:39.040Z,23.05
2022-07-30T14:55:10.850Z,23.23
2022-07-30T14:57:48.816Z,23.47
2022-07-30T15:00:48.588Z,23.47
2022-07-30T15:03:36.658Z,23.49
2022-07-30T15:06:15.633Z,23.33
2022-07-30T15:08:57.150Z,23.40
2022-07-30T15:11:44.889Z,23.69
2022-07-30T15:14:46.164Z,23.75
2022-07-30T15:17:29.676Z,23.87
2022-07-30T15:20:01.741Z,23.78
2022-07-30T15:22:40.077Z,24.02
2022-07-30T15:25:17.861Z,24.10
2022-07-30T15:27:58.256Z,24.43
2022-07-30T15:30:54.071Z,24.80
2022-07-30T15:33:37.174Z,25.01
2022-07-30T15:36:23.447Z,25.30
2022-07-30T15:39:11.157Z,25.36
2022-07-30T15:41:59.368Z,25.25
2022-07-30T15:45:15.366Z,25.20
2022-07-30T15:47:59.449Z,24.52
2022-07-30T15:50:37.517Z,24.19
2022-07-30T15:53:22.060Z,23.76
2022-07-30T15:56:04.859Z,23.51
2022-07-30T15:58:51.041Z,23.43
2022-07-30T16:01:26.518Z,23.33
2022-07-30T16:04:06.192Z,23.57
2022-07-30T16:07:00.073Z,23.83
2022-07-30T16:09:36.196Z,23.90
2022-07-30T16:12:17.413Z,24.51
2022-07-30T16:14:58.504Z,24.90
2022-07-30T16:17:39.214Z,25.39
2022-07-30T16:20:12.265Z,25.76
2022-07-30T16:23:11.932Z,25.71
2022-07-30T16:25:52.156Z,26.76
2022-07-30T16:28:36.043Z,26.62
2022-07-30T16:31:17.047Z,25.63
2022-07-30T16:33:58.172Z,25.04
2022-07-30T16:36:34.386Z,24.88
2022-07-30T16:39:08.986Z,24.85
2022-07-30T16:41:51.304Z,26.37
2022-07-30T16:44:32.165Z,27.28
2022-07-30T16:47:13.841Z,26.47
2022-07-30T16:49:57.573Z,27.29
2022-07-30T16:52:38.646Z,27.23
2022-07-30T16:55:09.382Z,26.47
2022-07-30T16:57:42.779Z,26.09
2022-07-30T17:00:18.382Z,25.32
2022-07-30T17:02:50.409Z,24.52
2022-07-30T17:05:31.654Z,23.97
2022-07-30T17:08:11.282Z,23.49
2022-07-30T17:10:50.332Z,23.18
2022-07-30T17:13:23.197Z,23.08
2022-07-30T17:16:02.302Z,22.90
2022-07-30T17:18:43.036Z,22.78
2022-07-30T17:21:14.024Z,22.74
2022-07-30T17:23:58.174Z,22.62
2022-07-30T17:26:36.830Z,22.49
2022-07-30T17:29:26.160Z,22.31
2022-07-30T17:32:08.250Z,22.50
2022-07-30T17:34:49.878Z,22.60
2022-07-30T17:37:23.386Z,22.59
2022-07-30T17:40:19.895Z,22.53
2022-07-30T17:43:08.183Z,22.41
2022-07-30T17:45:41.998Z,22.19
2022-07-30T17:48:27.088Z,22.15
2022-07-30T17:51:16.018Z,22.11
2022-07-30T17:53:59.301Z,21.99
2022-07-30T17:56:31.395Z,21.83
2022-07-30T17:59:09.747Z,21.76
2022-07-30T18:01:59.934Z,21.73
2022-07-30T18:04:33.458Z,21.64
2022-07-30T18:07:08.730Z,21.63
2022-07-30T18:09:47.406Z,21.59
2022-07-30T18:12:29.854Z,21.43
2022-07-30T18:15:11.444Z,21.47
2022-07-30T18:17:58.342Z,21.40
2022-07-30T18:20:32.839Z,21.31
2022-07-30T18:23:19.000Z,21.28
2022-07-30T18:26:00.862Z,21.20
2022-07-30T18:28:41.198Z,21.10
2022-07-30T18:31:16.126Z,21.08
2022-07-30T18:33:49.763Z,21.03
2022-07-30T18:36:35.899Z,21.00
2022-07-30T18:39:16.683Z,20.96
2022-07-30T18:41:52.157Z,20.86
2022-07-30T18:44:28.071Z,20.93
2022-07-30T18:47:10.216Z,20.97
2022-07-30T18:49:53.114Z,20.99
2022-07-30T18:52:25.644Z,20.92
2022-07-30T18:55:06.182Z,20.86
2022-07-30T18:57:56.210Z,20.87
2022-07-30T19:00:34.366Z,20.92
2022-07-30T19:03:22.869Z,20.89
2022-07-30T19:06:16.196Z,20.84
2022-07-30T19:09:02.292Z,21.00
2022-07-30T19:11:46.604Z,20.90
2022-07-30T19:14:17.202Z,21.01
2022-07-30T19:16:59.461Z,20.98
2022-07-30T19:19:43.891Z,21.07
2022-07-30T19:22:17.401Z,21.08
2022-07-30T19:25:13.106Z,21.01
2022-07-30T19:27:51.190Z,21.03
2022-07-30T19:30:30.544Z,20.98
2022-07-30T19:33:20.595Z,20.95
2022-07-30T19:35:56.713Z,21.02
2022-07-30T19:38:37.822Z,20.96
2022-07-30T19:41:14.819Z,20.98
2022-07-30T19:43:57.995Z,20.96
2022-07-30T19:46:47.214Z,21.00
2022-07-30T19:49:40.524Z,20.87
2022-07-30T19:52:17.532Z,20.92
2022-07-30T19:55:17.139Z,20.92
2022-07-30T19:58:20.672Z,20.85
2022-07-30T20:01:08.600Z,20.86
2022-07-30T20:04:01.141Z,20.78
2022-07-30T20:06:55.954Z,20.74
2022-07-30T20:09:42.857Z,20.69
2022-07-30T20:12:20.156Z,20.71
2022-07-30T20:15:03.161Z,20.70
2022-07-30T20:17:48.578Z,20.60
2022-07-30T20:20:42.195Z,20.56
2022-07-30T20:23:27.202Z,20.55
2022-07-30T20:26:12.590Z,20.54
2022-07-30T20:28:52.886Z,20.39
2022-07-30T20:31:50.128Z,20.29
2022-07-30T20:34:25.993Z,20.31
2022-07-30T20:36:59.424Z,20.27
2022-07-30T20:40:05.923Z,20.27
2022-07-30T20:42:46.423Z,20.21
2022-07-30T20:45:40.351Z,20.10
2022-07-30T20:48:17.400Z,20.06
2022-07-30T20:51:33.747Z,20.00
2022-07-30T20:54:09.193Z,20.05
2022-07-30T20:56:52.256Z,19.99
2022-07-30T20:59:23.736Z,19.99
2022-07-30T21:01:57.218Z,19.84
2022-07-30T21:04:28.444Z,19.93
2022-07-30T21:06:55.411Z,19.97
2022-07-30T21:09:49.708Z,19.82
2022-07-30T21:12:32.910Z,19.86
2022-07-30T21:15:24.000Z,19.84
2022-07-30T21:17:56.835Z,19.96
2022-07-30T21:20:35.966Z,19.97
2022-07-30T21:23:27.146Z,19.85
2022-07-30T21:26:13.449Z,19.84
2022-07-30T21:28:49.756Z,19.76
2022-07-30T21:32:01.473Z,19.82
2022-07-30T21:34:35.225Z,19.71
2022-07-30T21:37:21.535Z,19.68
2022-07-30T21:40:02.198Z,19.67
2022-07-30T21:42:33.554Z,19.51
2022-07-30T21:45:04.205Z,19.48
2022-07-30T21:47:39.733Z,19.35
2022-07-30T21:50:32.098Z,19.44
2022-07-30T21:53:08.187Z,19.26
2022-07-30T21:55:56.102Z,19.19
2022-07-30T21:58:39.076Z,19.07
2022-07-30T22:01:18.612Z,19.02
2022-07-30T22:04:02.932Z,19.05
2022-07-30T22:06:55.813Z,18.99
2022-07-30T22:09:41.212Z,19.12
2022-07-30T22:12:21.580Z,19.07
2022-07-30T22:15:09.256Z,19.01
2022-07-30T22:17:58.889Z,19.00
2022-07-30T22:20:42.288Z,19.11
2022-07-30T22:23:34.356Z,19.14
2022-07-30T22:26:17.419Z,19.08
2022-07-30T22:29:07.793Z,18.92
2022-07-30T22:31:50.139Z,18.99
2022-07-30T22:34:30.685Z,18.97
2022-07-30T22:37:13.466Z,18.89
2022-07-30T22:42:56.104Z,18.90
2022-07-30T22:45:49.197Z,18.80
2022-07-30T22:48:27.201Z,18.69
2022-07-30T22:50:58.452Z,18.73
2022-07-30T22:54:10.824Z,18.59
2022-07-30T22:56:48.365Z,18.53
2022-07-30T22:59:57.579Z,18.46
2022-07-30T23:02:44.339Z,18.33
2022-07-30T23:05:28.905Z,18.21
2022-07-30T23:08:06.551Z,18.12
2022-07-30T23:10:41.454Z,18.11
2022-07-30T23:12:29.080Z,18.90
2022-07-30T23:13:20.107Z,18.09
2022-07-30T23:16:01.862Z,18.07
2022-07-30T23:18:36.181Z,17.96
2022-07-30T23:21:13.175Z,18.08
2022-07-30T23:23:51.162Z,17.87
2022-07-30T23:26:28.682Z,17.86
2022-07-30T23:29:03.647Z,17.75
2022-07-30T23:31:36.756Z,17.85
2022-07-30T23:34:31.710Z,17.81
2022-07-30T23:37:17.223Z,17.73
2022-07-30T23:39:56.223Z,17.75
2022-07-30T23:42:40.970Z,17.80
2022-07-30T23:45:16.061Z,17.71
2022-07-30T23:48:00.964Z,17.75
2022-07-30T23:50:52.982Z,17.78
2022-07-30T23:53:21.235Z,17.87
2022-07-30T23:55:59.959Z,17.91
2022-07-30T23:58:33.582Z,18.00
